Time;durP1;ratioP1;P1;durP2;ratioP2;P2;SDS_P1;SDS_P2;PMS_P1;PMS_P2;Temp;Humidity;BMP_temperature;BMP_pressure;BME280_temperature;BME280_humidity;BME280_pressure;Samples;Min_cycle;Max_cycle;Signal;HPM_P1;HPM_P2
2021/09/25 00:02:45;;;;;;;35.92;21.67;;;10.40;99.90;;;;;;5905983;24;20404;-96
2021/09/25 00:05:56;;;;;;;59.92;32.67;;;10.30;99.90;;;;;;5900687;24;20533;-96
2021/09/25 00:09:07;;;;;;;48.30;29.13;;;10.30;99.90;;;;;;5901696;24;20422;-96
2021/09/25 00:12:18;;;;;;;40.47;24.45;;;10.30;99.90;;;;;;5886129;24;20381;-96
2021/09/25 00:15:33;;;;;;;59.53;30.60;;;10.30;99.90;;;;;;5900786;24;20483;-96
2021/09/25 00:19:06;;;;;;;56.15;30.33;;;10.30;99.90;;;;;;5849070;24;20502;-96
2021/09/25 00:22:38;;;;;;;49.92;28.30;;;10.30;99.90;;;;;;5875390;24;20441;-96
2021/09/25 00:36:29;;;;;;;28.50;17.40;;;10.40;99.90;;;;;;6179687;23;20472;-96
2021/09/25 00:44:01;;;;;;;23.73;16.10;;;10.50;99.90;;;;;;5847805;24;20593;-95
2021/09/25 01:46:47;;;;;;;;;;;;;;;;;;;;;
2021/09/25 01:50:05;;;;;;;;;;;;;;;;;;;;;
2021/09/25 02:06:58;;;;;;;29.37;17.40;;;10.20;99.90;;;;;;6072948;23;20475;-94
2021/09/25 02:09:40;;;;;;;43.65;21.67;;;10.10;99.90;;;;;;6043110;23;20396;-95
2021/09/25 02:16:35;;;;;;;;;;;;;;;;;;;;;
2021/09/25 02:26:59;;;;;;;48.40;25.50;;;10.00;99.90;;;;;;6228881;23;20396;-94
2021/09/25 02:32:52;;;;;;;29.02;16.15;;;10.10;99.90;;;;;;6228412;23;20491;-94
2021/09/25 02:35:49;;;;;;;23.58;15.15;;;9.90;99.90;;;;;;6202428;23;20378;-94
2021/09/25 02:38:45;;;;;;;53.47;23.70;;;10.00;99.90;;;;;;6203270;23;20551;-95
2021/09/25 02:41:38;;;;;;;33.35;17.17;;;9.70;99.90;;;;;;6216927;23;20395;-94
2021/09/25 02:51:32;;;;;;;39.83;18.75;;;9.90;99.90;;;;;;6026736;23;20396;-95
2021/09/25 02:54:07;;;;;;;45.03;21.15;;;9.90;99.90;;;;;;6047812;23;20403;-96
2021/09/25 05:09:53;;;;;;;110.53;50.00;;;9.00;99.90;;;;;;6113266;23;20390;-95
2021/09/25 05:19:19;;;;;;;83.28;41.67;;;9.50;99.90;;;;;;6187882;23;20393;-96
2021/09/25 05:22:47;;;;;;;75.63;39.15;;;9.50;99.90;;;;;;5994954;23;20447;-95
2021/09/25 05:28:45;;;;;;;89.38;43.20;;;9.60;99.90;;;;;;6001232;23;20403;-96
2021/09/25 05:31:53;;;;;;;105.80;49.33;;;9.60;99.90;;;;;;6004639;23;20400;-95
2021/09/25 06:03:47;;;;;;;80.00;39.28;;;9.70;99.90;;;;;;6125779;23;20408;-96
2021/09/25 06:06:56;;;;;;;98.10;47.10;;;9.70;99.90;;;;;;6141698;23;20390;-96
2021/09/25 06:13:36;;;;;;;90.72;47.15;;;9.70;99.90;;;;;;5985723;23;20369;-96
2021/09/25 06:16:06;;;;;;;71.93;41.28;;;10.10;99.90;;;;;;5964291;24;20404;-96
2021/09/25 06:18:34;;;;;;;65.22;39.40;;;10.20;99.90;;;;;;5979298;23;20389;-94
2021/09/25 06:21:09;;;;;;;62.45;37.60;;;10.40;99.90;;;;;;6117496;22;20705;-95
2021/09/25 06:30:22;;;;;;;56.45;32.33;;;10.60;99.90;;;;;;6210991;22;20399;-92
2021/09/25 06:32:50;;;;;;;54.92;33.38;;;10.70;99.90;;;;;;6199109;23;20388;-94
2021/09/25 06:35:17;;;;;;;54.28;33.90;;;10.70;99.90;;;;;;6196254;23;20391;-94
2021/09/25 06:37:45;;;;;;;55.72;32.00;;;10.80;99.90;;;;;;6194518;23;20871;-93
2021/09/25 06:40:13;;;;;;;49.92;30.85;;;10.90;99.90;;;;;;6196384;23;20396;-96
2021/09/25 06:42:40;;;;;;;45.72;30.20;;;11.00;99.90;;;;;;6173067;23;20836;-94
2021/09/25 06:45:09;;;;;;;41.05;28.25;;;11.10;99.90;;;;;;6197695;23;20445;-94
2021/09/25 06:48:03;;;;;;;44.33;27.98;;;11.30;99.90;;;;;;6197312;23;20758;-95
2021/09/25 06:50:31;;;;;;;35.08;24.20;;;11.50;99.90;;;;;;6196393;23;20392;-94
2021/09/25 06:52:58;;;;;;;37.20;23.27;;;11.60;99.90;;;;;;6193299;23;20387;-95
2021/09/25 06:55:27;;;;;;;30.80;21.42;;;11.80;99.90;;;;;;6222682;23;20454;-96
2021/09/25 06:57:56;;;;;;;31.03;21.33;;;12.00;99.90;;;;;;6197686;23;20390;-96
2021/09/25 07:00:29;;;;;;;32.78;21.70;;;12.00;99.90;;;;;;6201490;23;20372;-94
2021/09/25 07:03:00;;;;;;;32.58;21.15;;;12.10;99.90;;;;;;6199228;23;20446;-96
2021/09/25 07:07:53;;;;;;;30.37;20.90;;;12.30;99.90;;;;;;6218139;22;20853;-96
2021/09/25 07:10:33;;;;;;;30.42;19.90;;;12.40;99.90;;;;;;6205481;23;20390;-95
2021/09/25 07:13:03;;;;;;;29.35;19.60;;;12.60;99.90;;;;;;6197311;23;20399;-96
2021/09/25 07:15:31;;;;;;;26.77;19.15;;;12.70;99.90;;;;;;6198275;23;20387;-96
2021/09/25 07:18:15;;;;;;;24.70;18.17;;;12.80;99.90;;;;;;6198182;23;20388;-96
2021/09/25 07:20:45;;;;;;;27.55;18.67;;;12.90;99.90;;;;;;6218381;23;20395;-95
2021/09/25 07:23:13;;;;;;;24.35;17.52;;;13.00;99.90;;;;;;6218067;23;20368;-96
2021/09/25 07:25:40;;;;;;;28.20;17.30;;;13.10;99.90;;;;;;6217349;23;20398;-96
2021/09/25 07:28:09;;;;;;;25.73;17.85;;;13.20;99.90;;;;;;6210296;23;20376;-96
2021/09/25 07:30:41;;;;;;;22.45;17.27;;;13.30;99.90;;;;;;6195487;23;20387;-95
2021/09/25 07:33:16;;;;;;;23.95;16.17;;;13.40;99.90;;;;;;6197791;23;20395;-95
2021/09/25 07:35:46;;;;;;;22.90;16.02;;;13.60;99.90;;;;;;6197911;23;20371;-95
2021/09/25 07:38:16;;;;;;;22.92;16.42;;;13.60;99.90;;;;;;6200820;23;20479;-96
2021/09/25 07:40:43;;;;;;;23.52;15.90;;;13.50;99.90;;;;;;6203009;23;20375;-96
2021/09/25 07:43:12;;;;;;;21.42;16.10;;;13.60;99.90;;;;;;6199509;23;20392;-96
2021/09/25 07:49:21;;;;;;;22.55;15.60;;;13.80;99.90;;;;;;6219648;23;20390;-94
2021/09/25 07:51:48;;;;;;;17.58;14.60;;;13.80;99.90;;;;;;6192310;23;20407;-95
2021/09/25 07:54:15;;;;;;;22.60;15.43;;;13.90;99.90;;;;;;6194439;23;20451;-95
2021/09/25 07:56:43;;;;;;;23.83;15.27;;;14.00;99.90;;;;;;6195028;23;20468;-94
2021/09/25 07:59:10;;;;;;;22.00;15.07;;;14.00;99.90;;;;;;6193520;23;20411;-96
2021/09/25 08:01:37;;;;;;;21.10;15.07;;;14.00;99.90;;;;;;6192090;23;20391;-95
2021/09/25 08:14:27;;;;;;;18.95;14.52;;;13.90;99.90;;;;;;6136780;23;20408;31
2021/09/25 08:21:20;;;;;;;;;;;;;;;;;;;;;
2021/09/25 08:33:20;;;;;;;20.58;15.05;;;14.30;99.90;;;;;;6196114;23;20393;-95
2021/09/25 08:36:20;;;;;;;19.33;13.70;;;14.50;99.90;;;;;;6052619;23;20403;-92
2021/09/25 08:39:04;;;;;;;19.77;13.82;;;14.80;99.90;;;;;;6097294;23;20449;-96
2021/09/25 08:41:32;;;;;;;19.27;14.23;;;14.60;99.90;;;;;;6096234;23;20422;-95
2021/09/25 08:43:59;;;;;;;18.77;13.47;;;14.70;99.90;;;;;;6100736;23;20401;-96
2021/09/25 08:50:13;;;;;;;18.15;13.05;;;14.80;99.90;;;;;;6214528;23;20431;-96
2021/09/25 08:53:27;;;;;;;18.15;12.35;;;14.80;99.90;;;;;;6193993;23;20455;-95
2021/09/25 08:56:27;;;;;;;20.48;12.75;;;14.90;99.90;;;;;;6223168;23;20391;-96
2021/09/25 08:59:15;;;;;;;;;;;;;;;;;;;;;
2021/09/25 09:02:19;;;;;;;16.05;12.80;;;15.10;99.90;;;;;;6225613;23;20414;-95
2021/09/25 09:05:05;;;;;;;20.45;12.18;;;15.20;99.90;;;;;;6197828;23;20392;-96
2021/09/25 09:10:45;;;;;;;17.08;12.73;;;15.60;99.90;;;;;;6128191;23;20886;-95
2021/09/25 09:13:14;;;;;;;16.83;12.38;;;15.50;99.90;;;;;;6108426;23;20480;-94
2021/09/25 09:15:49;;;;;;;21.13;12.20;;;15.60;99.90;;;;;;6125835;23;20412;-95
2021/09/25 09:18:35;;;;;;;17.97;12.37;;;15.80;99.90;;;;;;6128503;23;20424;-95
2021/09/25 09:21:30;;;;;;;19.88;11.95;;;15.80;99.90;;;;;;6126904;23;20472;-94
2021/09/25 09:24:14;;;;;;;22.73;12.02;;;15.80;99.90;;;;;;6202792;23;20395;-94
2021/09/25 09:26:55;;;;;;;17.85;12.10;;;15.80;99.90;;;;;;6198046;23;20388;-93
2021/09/25 09:29:32;;;;;;;22.58;12.80;;;15.80;99.90;;;;;;6195983;23;20989;-95
2021/09/25 09:32:01;;;;;;;18.27;11.35;;;15.80;99.90;;;;;;6193135;23;20384;-95
2021/09/25 09:34:36;;;;;;;18.85;11.00;;;16.00;99.90;;;;;;6193753;23;20387;-93
2021/09/25 09:37:16;;;;;;;15.15;11.27;;;16.10;99.90;;;;;;6193518;23;20383;-93
2021/09/25 09:39:44;;;;;;;16.90;11.13;;;16.20;99.90;;;;;;6193436;23;20948;-96
2021/09/25 09:42:11;;;;;;;16.40;12.18;;;16.30;99.90;;;;;;6195487;23;20865;-94
2021/09/25 09:44:40;;;;;;;18.02;11.60;;;16.20;99.90;;;;;;6196602;23;20388;-93
2021/09/25 09:47:09;;;;;;;21.08;12.20;;;16.20;99.90;;;;;;6173446;23;20384;-93
2021/09/25 09:49:46;;;;;;;16.05;11.27;;;16.10;99.90;;;;;;6201864;23;20403;-93
2021/09/25 09:52:15;;;;;;;15.25;11.75;;;16.20;99.90;;;;;;6213478;23;20379;-93
2021/09/25 09:54:53;;;;;;;19.27;11.60;;;16.30;99.90;;;;;;6196631;23;20456;-94
2021/09/25 09:57:21;;;;;;;14.68;10.90;;;16.30;99.90;;;;;;6195721;23;20441;-94
2021/09/25 09:59:50;;;;;;;18.08;11.48;;;16.30;99.90;;;;;;6212155;23;20391;-95
2021/09/25 10:02:18;;;;;;;15.65;10.50;;;16.50;99.90;;;;;;6211630;23;20365;-94
2021/09/25 10:04:46;;;;;;;16.98;10.70;;;16.80;99.90;;;;;;6201911;23;20401;-94
2021/09/25 10:07:13;;;;;;;12.88;10.30;;;17.00;99.90;;;;;;6195565;23;20385;-95
2021/09/25 10:09:42;;;;;;;17.57;10.13;;;17.00;99.90;;;;;;6192941;23;20456;-93
2021/09/25 10:12:16;;;;;;;15.63;10.40;;;17.00;99.90;;;;;;6198538;23;20402;-96
2021/09/25 10:14:53;;;;;;;17.25;10.93;;;17.10;99.90;;;;;;6166816;23;20390;-94
2021/09/25 10:17:20;;;;;;;13.18;10.60;;;17.10;99.90;;;;;;6192741;23;20408;-94
2021/09/25 10:20:04;;;;;;;13.25;10.18;;;17.30;99.90;;;;;;6191626;23;20384;-94
2021/09/25 10:22:36;;;;;;;13.27;10.25;;;17.40;99.90;;;;;;6192816;23;20473;-95
2021/09/25 10:29:06;;;;;;;12.75;10.73;;;17.40;99.90;;;;;;6208599;23;20491;-96
2021/09/25 10:40:27;;;;;;;16.15;11.15;;;17.70;99.90;;;;;;6216228;23;20403;-90
2021/09/25 10:42:59;;;;;;;15.85;10.57;;;17.80;99.90;;;;;;6195414;23;20383;-96
2021/09/25 10:45:33;;;;;;;18.10;10.63;;;17.90;99.90;;;;;;6192997;23;20392;-95
2021/09/25 10:48:16;;;;;;;13.88;10.88;;;18.00;99.90;;;;;;6192650;23;20383;-91
2021/09/25 10:50:54;;;;;;;16.38;11.05;;;18.20;99.90;;;;;;6193912;23;20376;-92
2021/09/25 10:53:34;;;;;;;16.90;11.57;;;18.20;99.90;;;;;;6223667;23;20384;-96
2021/09/25 10:56:06;;;;;;;16.30;11.10;;;18.10;99.90;;;;;;6194952;23;20391;-93
2021/09/25 10:58:36;;;;;;;17.07;10.70;;;18.00;99.90;;;;;;6195790;23;20383;-92
2021/09/25 11:01:12;;;;;;;15.73;10.48;;;18.10;99.90;;;;;;6193780;23;20414;-91
2021/09/25 11:03:39;;;;;;;13.75;9.50;;;18.30;99.90;;;;;;6219751;23;20392;-91
2021/09/25 11:06:14;;;;;;;12.00;9.50;;;18.50;99.90;;;;;;6191614;23;20479;-89
2021/09/25 11:08:54;;;;;;;12.60;10.20;;;18.60;99.90;;;;;;6192450;23;20395;-90
2021/09/25 11:11:37;;;;;;;14.88;9.90;;;18.80;99.90;;;;;;6192107;23;20395;-90
2021/09/25 11:14:09;;;;;;;12.15;9.52;;;19.10;99.90;;;;;;6195776;23;20396;-91
2021/09/25 11:16:43;;;;;;;16.20;9.57;;;19.20;99.90;;;;;;6218528;23;20378;-91
2021/09/25 11:19:26;;;;;;;15.52;9.25;;;19.60;99.90;;;;;;6215839;23;20375;-90
2021/09/25 11:21:59;;;;;;;13.98;9.48;;;19.50;99.90;;;;;;6200458;23;20383;-90
2021/09/25 11:24:33;;;;;;;12.23;8.55;;;19.70;99.90;;;;;;6195445;23;20764;-90
2021/09/25 11:27:02;;;;;;;12.40;8.45;;;20.10;99.90;;;;;;6193231;23;20741;-90
2021/09/25 11:29:29;;;;;;;10.68;7.68;;;20.10;99.90;;;;;;6171476;23;20853;-90
2021/09/25 11:32:07;;;;;;;10.30;8.07;;;20.40;99.90;;;;;;6200223;23;20395;-91
2021/09/25 11:34:35;;;;;;;16.88;8.90;;;20.60;99.90;;;;;;6196234;23;20388;-91
2021/09/25 11:37:05;;;;;;;13.43;8.80;;;20.50;99.90;;;;;;6195575;23;20694;-89
2021/09/25 11:39:39;;;;;;;12.98;8.75;;;20.60;99.90;;;;;;6234524;23;20372;-92
2021/09/25 11:42:18;;;;;;;11.52;8.38;;;20.70;99.90;;;;;;6192866;23;20430;-96
2021/09/25 11:45:05;;;;;;;11.85;8.13;;;21.00;99.90;;;;;;6191450;23;20371;-90
2021/09/25 11:47:34;;;;;;;11.38;7.95;;;21.00;99.90;;;;;;6191306;23;20394;-92
2021/09/25 11:50:26;;;;;;;9.88;7.30;;;21.20;99.90;;;;;;6190712;23;20399;-94
2021/09/25 11:52:59;;;;;;;9.40;6.93;;;21.30;99.90;;;;;;6170987;23;20388;-92
2021/09/25 11:55:28;;;;;;;9.90;5.88;;;21.70;99.90;;;;;;6191144;23;20958;-92
2021/09/25 11:58:01;;;;;;;10.57;6.22;;;21.90;99.90;;;;;;6191645;23;20398;-91
2021/09/25 12:00:32;;;;;;;10.98;6.60;;;21.90;99.90;;;;;;6191184;23;20386;-91
2021/09/25 12:03:00;;;;;;;10.02;6.10;;;22.10;99.90;;;;;;6166553;23;20399;-90
2021/09/25 12:05:53;;;;;;;9.75;6.20;;;22.20;99.90;;;;;;6191251;23;20384;-90
2021/09/25 12:08:27;;;;;;;10.05;5.80;;;22.50;99.90;;;;;;6191962;23;20418;-91
2021/09/25 12:11:00;;;;;;;8.55;6.20;;;22.90;99.90;;;;;;6190487;23;20398;-93
2021/09/25 12:13:29;;;;;;;8.23;5.93;;;23.40;99.90;;;;;;6191900;23;20372;-94
2021/09/25 12:16:10;;;;;;;9.80;5.75;;;23.60;99.90;;;;;;6193421;23;20384;-91
2021/09/25 12:18:39;;;;;;;9.10;5.10;;;23.60;97.70;;;;;;6191216;23;20395;-90
2021/09/25 12:21:07;;;;;;;7.18;5.10;;;23.90;98.70;;;;;;6190083;23;20398;-92
2021/09/25 12:23:39;;;;;;;8.68;5.50;;;24.00;97.30;;;;;;6190102;23;20376;-90
2021/09/25 12:26:08;;;;;;;9.85;5.60;;;24.10;97.10;;;;;;6190553;23;20880;-93
2021/09/25 12:28:48;;;;;;;10.07;4.68;;;24.30;94.70;;;;;;6192191;23;20367;-95
2021/09/25 12:31:33;;;;;;;8.82;4.43;;;24.50;95.30;;;;;;6190690;23;20395;-94
2021/09/25 12:34:06;;;;;;;5.68;4.10;;;24.60;95.50;;;;;;6190864;23;20463;-94
2021/09/25 12:36:42;;;;;;;8.43;5.30;;;25.00;96.20;;;;;;6192054;23;20734;-95
2021/09/25 12:39:10;;;;;;;7.72;5.30;;;25.20;93.00;;;;;;6196366;23;20876;-87
2021/09/25 12:41:43;;;;;;;8.88;4.97;;;25.20;93.10;;;;;;6196070;23;20383;-86
2021/09/25 12:44:11;;;;;;;8.50;5.00;;;25.30;92.50;;;;;;6191791;23;20367;-91
2021/09/25 12:46:41;;;;;;;8.45;4.85;;;25.30;93.50;;;;;;6218396;23;20391;-87
2021/09/25 12:49:14;;;;;;;5.88;4.68;;;25.50;91.10;;;;;;6191919;23;20425;-88
2021/09/25 12:52:00;;;;;;;16.58;4.95;;;25.40;91.30;;;;;;6191599;23;20435;-91
2021/09/25 12:54:31;;;;;;;6.65;5.00;;;25.50;92.20;;;;;;6190239;23;20403;-90
2021/09/25 12:57:05;;;;;;;11.20;5.20;;;25.80;90.70;;;;;;6190437;23;20438;-88
2021/09/25 12:59:38;;;;;;;7.55;4.90;;;25.80;91.50;;;;;;6191317;23;20418;-89
2021/09/25 13:02:11;;;;;;;8.30;4.93;;;26.00;90.50;;;;;;6217375;23;20364;-90
2021/09/25 13:04:53;;;;;;;7.57;5.00;;;26.40;87.70;;;;;;6217700;23;20371;-92
2021/09/25 13:07:40;;;;;;;8.03;4.77;;;26.60;84.60;;;;;;6192198;23;20737;-93
2021/09/25 13:10:46;;;;;;;8.45;4.28;;;26.80;83.90;;;;;;6212184;23;20390;-89
2021/09/25 13:13:18;;;;;;;8.33;4.17;;;27.10;82.00;;;;;;6241607;23;20367;-90
2021/09/25 13:15:46;;;;;;;6.90;4.30;;;27.00;82.00;;;;;;6200391;23;20396;-90
2021/09/25 13:18:13;;;;;;;5.73;4.43;;;27.00;81.60;;;;;;6219648;23;20384;-88
2021/09/25 13:20:40;;;;;;;8.00;4.40;;;27.10;79.40;;;;;;6190639;23;20402;-93
2021/09/25 13:23:18;;;;;;;4.95;3.58;;;27.00;77.80;;;;;;6190968;23;20401;-90
2021/09/25 13:25:45;;;;;;;6.30;3.83;;;26.90;78.70;;;;;;6211728;23;20391;-90
2021/09/25 13:28:14;;;;;;;5.25;3.83;;;26.80;76.50;;;;;;6190706;23;20387;-89
2021/09/25 13:30:41;;;;;;;6.72;4.00;;;27.00;74.40;;;;;;6189913;23;20884;-89
2021/09/25 13:33:08;;;;;;;5.60;3.67;;;27.20;75.90;;;;;;6190014;23;20384;-89
2021/09/25 13:35:35;;;;;;;4.43;3.50;;;27.50;75.40;;;;;;6189771;23;20386;-89
2021/09/25 13:38:03;;;;;;;6.40;3.60;;;27.60;72.70;;;;;;6164768;23;20395;-89
2021/09/25 13:40:30;;;;;;;6.23;3.53;;;27.70;70.50;;;;;;6190458;23;20406;-90
2021/09/25 13:42:57;;;;;;;6.07;3.67;;;27.60;74.20;;;;;;6189613;23;20753;-90
2021/09/25 13:45:24;;;;;;;6.25;4.00;;;27.80;73.70;;;;;;6189513;23;20387;-89
2021/09/25 13:47:52;;;;;;;7.63;4.00;;;27.30;73.70;;;;;;6190057;23;20442;-92
2021/09/25 13:50:22;;;;;;;6.18;3.90;;;27.50;71.80;;;;;;6205833;23;20431;-88
2021/09/25 13:52:51;;;;;;;5.82;3.20;;;27.80;72.90;;;;;;6205793;23;20479;-91
2021/09/25 13:55:18;;;;;;;6.65;4.30;;;28.00;68.90;;;;;;6191685;23;20394;-89
2021/09/25 13:57:45;;;;;;;6.13;4.25;;;28.10;70.80;;;;;;6191014;23;20384;-88
2021/09/25 14:00:13;;;;;;;11.65;4.22;;;28.00;68.50;;;;;;6189735;23;20946;-89
2021/09/25 14:02:40;;;;;;;6.45;4.13;;;27.60;70.00;;;;;;6189955;23;20372;-88
2021/09/25 14:05:08;;;;;;;7.30;3.78;;;27.80;68.60;;;;;;6190036;23;20376;-90
2021/09/25 14:07:35;;;;;;;4.35;3.30;;;28.20;70.20;;;;;;6191223;23;20441;-88
2021/09/25 14:10:03;;;;;;;9.05;3.40;;;28.40;67.60;;;;;;6190932;23;20403;-89
2021/09/25 14:12:30;;;;;;;7.50;3.20;;;28.50;65.90;;;;;;6191959;23;20367;-86
2021/09/25 14:14:57;;;;;;;8.15;3.55;;;28.70;65.70;;;;;;6192158;23;20438;-89
2021/09/25 14:17:24;;;;;;;4.97;3.53;;;28.70;67.40;;;;;;6191585;23;20371;-90
2021/09/25 14:19:51;;;;;;;6.03;3.57;;;28.80;64.30;;;;;;6218040;23;20437;-92
2021/09/25 14:22:18;;;;;;;5.03;3.42;;;29.00;67.80;;;;;;6192137;23;20392;-91
2021/09/25 14:24:45;;;;;;;4.32;3.40;;;29.00;67.00;;;;;;6191347;23;20375;-90
2021/09/25 14:27:12;;;;;;;5.00;3.55;;;29.00;66.40;;;;;;6197432;23;20776;-94
2021/09/25 14:29:40;;;;;;;5.13;3.70;;;28.90;67.70;;;;;;6219689;23;20391;-90
2021/09/25 14:32:09;;;;;;;7.72;3.35;;;28.80;68.00;;;;;;6192187;23;20388;-91
2021/09/25 14:34:37;;;;;;;7.35;3.55;;;28.30;67.40;;;;;;6191479;23;20383;-93
2021/09/25 14:37:04;;;;;;;6.82;3.22;;;28.30;67.50;;;;;;6191651;23;20415;-89
2021/09/25 14:39:31;;;;;;;5.90;3.50;;;28.50;68.10;;;;;;6191537;23;20426;-86
2021/09/25 14:42:01;;;;;;;9.38;3.50;;;28.50;70.20;;;;;;6191659;23;20503;-92
2021/09/25 14:44:30;;;;;;;4.90;3.40;;;28.60;67.20;;;;;;6191920;23;20395;-89
2021/09/25 14:46:57;;;;;;;4.57;3.40;;;28.60;66.10;;;;;;6192233;23;20378;-91
2021/09/25 14:49:27;;;;;;;8.43;3.70;;;28.40;69.10;;;;;;6192955;23;20713;-94
2021/09/25 14:51:57;;;;;;;4.18;3.55;;;28.50;66.80;;;;;;6191647;23;20944;-90
2021/09/25 14:54:24;;;;;;;4.10;3.67;;;28.40;64.20;;;;;;6191255;23;20391;-92
2021/09/25 14:56:56;;;;;;;5.72;3.42;;;28.00;64.10;;;;;;6201698;23;20482;-92
2021/09/25 14:59:23;;;;;;;7.65;3.83;;;28.00;66.10;;;;;;6217750;23;20364;-92
2021/09/25 15:01:54;;;;;;;8.23;4.10;;;27.70;63.50;;;;;;6208653;23;20457;-90
2021/09/25 15:04:23;;;;;;;7.40;4.00;;;27.00;64.30;;;;;;6196789;23;20387;-91
2021/09/25 15:06:50;;;;;;;6.10;3.90;;;26.50;68.40;;;;;;6191827;23;20395;-89
2021/09/25 15:09:17;;;;;;;5.85;3.55;;;26.70;69.30;;;;;;6191503;23;20868;-89
2021/09/25 15:11:44;;;;;;;4.15;3.30;;;27.10;69.50;;;;;;6205365;23;20371;-90
2021/09/25 15:14:12;;;;;;;5.82;3.45;;;27.10;69.00;;;;;;6198796;23;20387;-92
2021/09/25 15:16:44;;;;;;;10.75;3.70;;;27.20;66.90;;;;;;6220018;23;20387;-94
2021/09/25 15:19:12;;;;;;;5.35;3.83;;;27.40;70.50;;;;;;6191244;23;20698;-93
2021/09/25 15:21:39;;;;;;;4.55;3.65;;;27.30;67.40;;;;;;6191512;23;20371;-93
2021/09/25 15:24:07;;;;;;;6.53;3.40;;;27.30;67.10;;;;;;6190821;23;20394;-94
2021/09/25 15:26:34;;;;;;;7.95;3.60;;;27.50;67.10;;;;;;6191122;23;20383;-93
2021/09/25 15:29:01;;;;;;;5.50;3.42;;;27.70;68.10;;;;;;6191326;23;20387;-93
2021/09/25 15:31:29;;;;;;;5.57;3.40;;;27.60;69.30;;;;;;6190869;23;20399;-94
2021/09/25 15:33:56;;;;;;;4.43;3.80;;;27.40;69.50;;;;;;6191486;23;20391;-92
2021/09/25 15:36:23;;;;;;;7.47;3.73;;;27.10;67.60;;;;;;6201727;23;20490;-93
2021/09/25 15:38:50;;;;;;;6.30;3.65;;;27.00;69.40;;;;;;6191615;23;20894;-93
2021/09/25 15:41:17;;;;;;;5.28;3.38;;;26.90;71.60;;;;;;6191967;23;20400;-93
2021/09/25 15:43:45;;;;;;;6.75;3.50;;;26.40;73.20;;;;;;6190684;23;20872;-93
2021/09/25 15:46:12;;;;;;;8.20;3.50;;;26.30;71.80;;;;;;6191198;23;20387;-93
2021/09/25 15:48:39;;;;;;;4.50;3.60;;;25.80;71.70;;;;;;6190928;23;20934;-92
2021/09/25 15:51:10;;;;;;;5.55;3.33;;;25.20;73.90;;;;;;6191230;23;20918;-93
2021/09/25 15:53:37;;;;;;;5.10;3.70;;;24.80;77.00;;;;;;6190235;23;20390;-93
2021/09/25 15:56:04;;;;;;;5.00;3.53;;;25.10;74.70;;;;;;6190683;23;20474;-91
2021/09/25 15:58:32;;;;;;;6.72;3.70;;;24.40;77.00;;;;;;6191863;23;20384;-94
2021/09/25 16:00:59;;;;;;;6.22;3.83;;;23.70;80.30;;;;;;6191425;23;20391;-92
2021/09/25 16:03:27;;;;;;;5.07;3.60;;;23.20;82.60;;;;;;6190974;23;20686;-94
2021/09/25 16:05:54;;;;;;;5.63;3.97;;;22.90;83.50;;;;;;6191230;23;20484;-94
2021/09/25 16:08:21;;;;;;;5.82;4.03;;;22.40;85.80;;;;;;6190293;23;20387;-93
2021/09/25 16:10:49;;;;;;;6.85;4.03;;;22.60;84.90;;;;;;6190513;23;20724;-93
2021/09/25 16:13:18;;;;;;;4.22;3.47;;;23.00;81.00;;;;;;6191901;23;20398;-92
2021/09/25 16:15:45;;;;;;;6.72;4.10;;;22.30;87.70;;;;;;6190756;23;20388;-92
2021/09/25 16:18:14;;;;;;;9.82;3.95;;;21.80;89.70;;;;;;6191595;23;20383;-93
2021/09/25 16:20:41;;;;;;;9.43;4.47;;;21.30;91.00;;;;;;6190693;23;20888;-91
2021/09/25 16:23:30;;;;;;;9.80;4.33;;;20.80;92.40;;;;;;6192822;23;20403;-94
2021/09/25 16:26:12;;;;;;;7.70;4.40;;;20.60;93.30;;;;;;6232473;23;20383;-93
2021/09/25 16:28:39;;;;;;;9.23;4.50;;;19.90;95.40;;;;;;6209185;23;20382;-84
2021/09/25 16:31:06;;;;;;;7.73;5.03;;;19.50;97.20;;;;;;6194418;23;20412;-89
2021/09/25 16:33:34;;;;;;;11.45;4.72;;;19.00;99.00;;;;;;6191391;23;20441;-88
2021/09/25 16:36:01;;;;;;;12.10;4.83;;;18.80;99.90;;;;;;6190289;23;20414;-90
2021/09/25 16:38:28;;;;;;;9.15;4.75;;;18.30;99.90;;;;;;6189713;23;20391;-90
2021/09/25 16:40:56;;;;;;;6.78;5.03;;;17.90;99.90;;;;;;6195165;23;20430;-90
2021/09/25 16:43:23;;;;;;;5.57;4.80;;;17.50;99.90;;;;;;6216298;23;20391;-90
2021/09/25 16:45:56;;;;;;;13.30;5.80;;;17.40;99.90;;;;;;6199972;23;20395;-94
2021/09/25 16:48:43;;;;;;;8.77;5.93;;;17.20;99.90;;;;;;6176001;23;20484;-95
2021/09/25 16:51:11;;;;;;;9.10;6.00;;;16.80;99.90;;;;;;6196970;23;20403;-94
2021/09/25 16:54:04;;;;;;;7.63;5.43;;;16.40;99.90;;;;;;6212051;23;20371;-94
2021/09/25 16:56:35;;;;;;;7.38;5.30;;;16.10;99.90;;;;;;6202933;23;20386;-92
2021/09/25 16:59:06;;;;;;;9.43;5.50;;;16.00;99.90;;;;;;6193724;23;20395;-92
2021/09/25 17:01:33;;;;;;;6.70;5.27;;;16.00;99.90;;;;;;6189288;23;20398;-94
2021/09/25 17:04:01;;;;;;;8.40;5.30;;;15.90;99.90;;;;;;6190325;23;20410;-93
2021/09/25 17:06:33;;;;;;;8.50;6.45;;;15.70;99.90;;;;;;6200610;23;20387;-94
2021/09/25 17:09:55;;;;;;;8.88;6.18;;;15.50;99.90;;;;;;6202630;23;20417;-96
2021/09/25 17:12:37;;;;;;;9.02;5.88;;;15.30;99.90;;;;;;6051579;23;20406;-94
2021/09/25 17:15:56;;;;;;;8.77;5.55;;;15.10;99.90;;;;;;6078939;23;20431;-94
2021/09/25 17:18:23;;;;;;;9.88;5.70;;;14.80;99.90;;;;;;6141198;23;20409;-95
2021/09/25 17:20:54;;;;;;;8.50;5.50;;;14.60;99.90;;;;;;6194582;23;20395;-93
2021/09/25 17:23:37;;;;;;;11.97;7.20;;;14.60;99.90;;;;;;6196624;23;20372;-94
2021/09/25 17:26:06;;;;;;;13.98;8.30;;;14.60;99.90;;;;;;6205678;23;20383;-93
2021/09/25 17:28:37;;;;;;;11.57;6.55;;;14.40;99.90;;;;;;6202276;22;20387;-93
2021/09/25 17:31:12;;;;;;;9.13;6.30;;;14.40;99.90;;;;;;6232585;23;20531;-93
2021/09/25 17:33:58;;;;;;;8.50;5.90;;;14.20;99.90;;;;;;6212515;23;20391;-93
2021/09/25 17:36:27;;;;;;;9.23;5.68;;;14.20;99.90;;;;;;6203883;23;20415;-92
2021/09/25 17:38:57;;;;;;;8.32;5.32;;;14.40;99.90;;;;;;6195718;23;20429;-94
2021/09/25 17:41:25;;;;;;;10.35;5.72;;;14.60;99.90;;;;;;6196607;23;20903;-91
2021/09/25 17:43:52;;;;;;;9.10;6.70;;;14.50;99.90;;;;;;6194869;23;20394;-93
2021/09/25 17:46:19;;;;;;;10.63;7.53;;;14.50;99.90;;;;;;6198034;23;20392;-92
2021/09/25 17:48:46;;;;;;;10.55;6.75;;;14.40;99.90;;;;;;6201685;23;20442;-92
2021/09/25 17:51:34;;;;;;;10.48;6.38;;;14.10;99.90;;;;;;6203895;23;20419;-91
2021/09/25 17:54:02;;;;;;;13.38;6.75;;;14.10;99.90;;;;;;6195717;23;20389;-92
2021/09/25 17:56:36;;;;;;;11.30;6.30;;;14.10;99.90;;;;;;6214351;23;20375;-91
2021/09/25 17:59:04;;;;;;;12.07;6.20;;;13.90;99.90;;;;;;6215176;23;20387;-92
2021/09/25 18:01:31;;;;;;;12.02;6.25;;;14.00;99.90;;;;;;6207902;23;20398;-93
2021/09/25 18:03:58;;;;;;;17.40;6.33;;;13.80;99.90;;;;;;6196196;23;20478;-92
2021/09/25 18:06:26;;;;;;;10.55;6.50;;;13.90;99.90;;;;;;6191305;23;20705;-92
2021/09/25 18:08:58;;;;;;;13.38;6.05;;;14.00;99.90;;;;;;6191925;23;20388;-94
2021/09/25 18:11:25;;;;;;;13.10;6.40;;;13.90;99.90;;;;;;6196917;23;20392;-93
2021/09/25 18:13:52;;;;;;;12.77;6.50;;;14.10;99.90;;;;;;6203802;23;20366;-92
2021/09/25 18:16:19;;;;;;;9.25;6.50;;;14.20;99.90;;;;;;6193733;23;20418;-92
2021/09/25 18:18:47;;;;;;;16.50;6.80;;;14.30;99.90;;;;;;6194313;23;20442;-94
2021/09/25 18:21:14;;;;;;;11.02;6.30;;;14.20;99.90;;;;;;6198560;23;20390;-94
2021/09/25 18:23:43;;;;;;;11.65;6.43;;;14.20;99.90;;;;;;6193314;23;20391;-93
2021/09/25 18:26:10;;;;;;;10.48;6.68;;;13.90;99.90;;;;;;6193300;23;20467;-93
2021/09/25 18:28:38;;;;;;;7.82;6.40;;;13.70;99.90;;;;;;6190915;23;20483;-92
2021/09/25 18:31:05;;;;;;;8.38;5.80;;;13.70;99.90;;;;;;6191523;23;20407;-93
2021/09/25 18:33:33;;;;;;;10.30;6.47;;;13.80;99.90;;;;;;6214510;23;20406;-93
2021/09/25 18:36:00;;;;;;;12.20;6.90;;;13.80;99.90;;;;;;6194571;23;20502;-92
2021/09/25 18:38:31;;;;;;;13.10;7.15;;;13.90;99.90;;;;;;6188811;23;21834;-91
2021/09/25 18:40:58;;;;;;;13.23;7.10;;;13.90;99.90;;;;;;6191914;23;20386;-92
2021/09/25 18:43:25;;;;;;;11.52;7.32;;;13.90;99.90;;;;;;6191578;23;20398;-93
2021/09/25 18:45:52;;;;;;;12.50;7.50;;;13.60;99.90;;;;;;6194432;23;20394;-96
2021/09/25 18:48:20;;;;;;;14.82;7.30;;;13.50;99.90;;;;;;6192939;23;20414;-92
2021/09/25 18:50:50;;;;;;;11.35;7.60;;;13.70;99.90;;;;;;6190665;23;20494;-92
2021/09/25 18:53:20;;;;;;;11.85;7.15;;;13.90;99.90;;;;;;6195260;23;20423;-92
2021/09/25 18:55:48;;;;;;;11.50;6.70;;;14.00;99.90;;;;;;6194739;23;20445;-95
2021/09/25 18:58:15;;;;;;;10.07;6.47;;;14.00;99.90;;;;;;6195088;23;20860;-93
2021/09/25 19:00:50;;;;;;;12.32;6.55;;;14.00;99.90;;;;;;6192805;23;20391;-96
2021/09/25 19:03:18;;;;;;;10.77;6.40;;;14.00;99.90;;;;;;6221229;23;20765;-94
2021/09/25 19:05:48;;;;;;;12.65;6.25;;;13.90;99.90;;;;;;6192155;23;20423;-95